METAR Data
IDs: Format: Raw Decoded Include TAF

Data at: 1400 UTC 21 Apr 2021

METAR for:KCWI (Clinton Muni, IA, US)
Text:KCWI 211356Z AUTO 32009KT 10SM CLR 03/M06 A3017 RMK AO2 SLP224 T00331056
Temperature: 3.3°C ( 38°F)
Dewpoint: -5.6°C ( 22°F) [RH = 52%]
Pressure (altimeter):30.17 inches Hg (1021.8 mb) [Sea level pressure: 1022.4 mb]
Winds:from the NW (320 degrees) at 10 MPH (9 knots; 4.6 m/s)
Visibility:10 or more sm (16+ km)
Ceiling:at least 12,000 feet AGL
Clouds:sky clear below 12,000 feet AGL
QC Flag:automated observation with no human augmentation